Portada
METAR-TAF:

METAR-TAF

Aeroports :

Wallis, França

latitud: 13-14S, longitud: 176-10W, altitud: 23 m

METAR: manca

Hora: 12:55 (00:55 UTC)

Pronòstic

L'informe es va fer fa 1 hora i 55 minuts, a les 23:00 UTC
Pronòstic vàlid del 22 a les 00 UTC al 22 a les 24 UTC
Vent 5 kt del Est
Visibilitat 10 km o més
Escasses núvols a una alçada de 2000 ft
Núvols disperses a una alçada de 6000 ft
Probabilitat 30% :
Temporalment
l' 22 a les 00 UTC al 22 a les 12 UTC
Visibilitat: 4000 m
Cel ennuvolat a una alçada de 1400 ft
Escasses núvols a una alçada de 2000 ft, Cumulus congestus.
xàfecs de pluja

TAF: NLWW 212300Z 2200/2224 10005KT 9999 FEW020 SCT060 PROB30 TEMPO 2200/2212 4000 SHRA BKN014 FEW020TCU

Observacions i pronòstics meteorològics de més de 4000 aeroports (METAR i TAF).

Les estacions disponibles són els punts grocs i vermells al mapa.

Posi el ratolí al punt desitjat per veure el nom de l'estació.

Feu clic per veure les observacions i els pronòstics meteorològics.

Per canviar el mapa: feu clic els botons verds amb una creu de color negre per apropar; al botó verd amb un guió per allunyar la imatge; o en les fletxes verdes per a mapes adjacents.


METAR-TAF: